Fecha, hora, temperatura, viento dirección y velocidad, humedad y presión.

  • 19-03-2019 23:00:00 | 9.80°C | Nordeste |5.00 km/h | 78.00% | 0.00 hPa
  • 19-03-2019 22:00:00 | 9.90°C | Norte |5.00 km/h | 75.00% | 0.00 hPa
  • 19-03-2019 21:00:00 | 9.90°C | Norte |4.00 km/h | 73.00% | 0.00 hPa
  • 19-03-2019 20:00:00 | 9.90°C | Norte |4.00 km/h | 75.00% | 0.00 hPa
  • 19-03-2019 19:00:00 | 10.10°C | Norte |5.00 km/h | 79.00% | 0.00 hPa
  • 19-03-2019 18:00:00 | 10.40°C | Nordeste |6.00 km/h | 77.00% | 0.00 hPa
  • 19-03-2019 17:00:00 | 10.30°C | Este |8.00 km/h | 78.00% | 0.00 hPa
  • 19-03-2019 16:00:00 | 10.50°C | Nordeste |9.00 km/h | 79.00% | 0.00 hPa
  • 19-03-2019 15:00:00 | 10.80°C | Nordeste |7.00 km/h | 82.00% | 0.00 hPa
  • 19-03-2019 14:00:00 | 10.60°C | Nordeste |12.00 km/h | 80.00% | 0.00 hPa
  • 19-03-2019 13:00:00 | 12.10°C | Nordeste |10.00 km/h | 77.00% | 0.00 hPa
  • 19-03-2019 12:00:00 | 11.70°C | Nordeste |10.00 km/h | 80.00% | 0.00 hPa
  • 19-03-2019 11:00:00 | 10.50°C | Nordeste |13.00 km/h | 83.00% | 0.00 hPa
  • 19-03-2019 10:00:00 | 9.70°C | Nordeste |9.00 km/h | 92.00% | 0.00 hPa
  • 19-03-2019 09:00:00 | 8.50°C | Nordeste |13.00 km/h | 94.00% | 0.00 hPa
  • 19-03-2019 08:00:00 | 9.00°C | Norte |6.00 km/h | 93.00% | 0.00 hPa
  • 19-03-2019 07:00:00 | 9.20°C | Noroeste |12.00 km/h | 95.00% | 0.00 hPa
  • 19-03-2019 06:00:00 | 8.90°C | Noroeste |22.00 km/h | 94.00% | 0.00 hPa
  • 19-03-2019 05:00:00 | 9.20°C | Noroeste |32.00 km/h | 89.00% | 0.00 hPa
  • 19-03-2019 04:00:00 | 8.60°C | Oeste |24.00 km/h | 92.00% | 0.00 hPa
  • 19-03-2019 03:00:00 | 9.00°C | Oeste |31.00 km/h | 87.00% | 0.00 hPa
  • 19-03-2019 02:00:00 | 9.40°C | Noroeste |35.00 km/h | 80.00% | 0.00 hPa
  • 19-03-2019 01:00:00 | 8.90°C | Noroeste |20.00 km/h | 89.00% | 0.00 hPa
  • 19-03-2019 00:00:00 | 9.50°C | Oeste |27.00 km/h | 82.00% | 0.00 hPa
    • diseño web asturias Información sobre el estado de las mareas, altura de la marejada, temperatura del agua y otros datos de Gijón en Asturias.

      Surf Gijón